Coaticook, Canada
Current Conditions -  °F | °C
As of 2:20 AM on Sunday 23 Nov 2014 (Local Time) from CYSC Reporting Station
Light Rain Light Rain  
Wind Chill: 31°   Ceiling: 200
Heat Index: 36°   Visibility: 1.2mi
Dew Point: 36°   Wind: 6mph
Humidity: 100%   Direction: 230°SW
Pressure: 29.9"   Gusts: NA
Location:  45.13°N, 71.8°W
Report Text: CYSC 230720Z AUTO 23005KT 1 1/4SM -RA BR OVC002 02/02 A2990 RMK SLP137
Loading
Personal Weather Stations






























Interactive Weather Map New forecast layout! Learn more

10-Day Weather Forecast

Advertisements
Track Severe Weather on mobile